Time;durP1;ratioP1;P1;durP2;ratioP2;P2;SDS_P1;SDS_P2;PMS_P1;PMS_P2;Temp;Humidity;BMP_temperature;BMP_pressure;BME280_temperature;BME280_humidity;BME280_pressure;Samples;Min_cycle;Max_cycle;Signal;HPM_P1;HPM_P2
2021/03/11 00:01:31;;;;;;;57.58;29.75;;;;;;;-2.93;59.68;100156.84;252994;1105;115215;-64
2021/03/11 00:06:35;;;;;;;59.35;29.52;;;;;;;-2.92;59.51;100160.28;252248;1105;115915;-65
2021/03/11 00:11:39;;;;;;;59.93;32.20;;;;;;;-2.93;61.71;100166.45;252248;1105;117125;-63
2021/03/11 00:16:43;;;;;;;54.83;27.48;;;;;;;-2.90;60.48;100171.41;252123;1104;116807;-64
2021/03/11 00:21:47;;;;;;;59.97;29.17;;;;;;;-2.90;60.76;100161.79;251977;1105;115627;-63
2021/03/11 00:26:50;;;;;;;56.25;29.20;;;;;;;-2.83;61.38;100167.28;252776;1105;115868;-63
2021/03/11 00:31:55;;;;;;;45.80;27.75;;;;;;;-2.88;59.98;100164.27;252859;1104;116414;-65
2021/03/11 00:36:58;;;;;;;54.60;25.88;;;;;;;-2.92;61.79;100162.89;252906;1105;115239;-63
2021/03/11 00:42:02;;;;;;;56.15;31.45;;;;;;;-2.96;61.21;100169.34;253752;1105;115352;-64
2021/03/11 00:47:06;;;;;;;57.53;30.65;;;;;;;-2.98;59.75;100168.65;253123;1105;116111;-65
2021/03/11 00:52:14;;;;;;;60.35;28.38;;;;;;;-3.01;60.13;100174.96;254277;1105;115305;-65
2021/03/11 00:57:17;;;;;;;54.60;25.20;;;;;;;-3.01;62.35;100159.31;254416;1104;115666;-65
2021/03/11 01:02:21;;;;;;;60.55;29.95;;;;;;;-3.08;62.31;100146.02;254026;1104;115202;-65
2021/03/11 01:07:27;;;;;;;55.50;30.05;;;;;;;-3.08;62.02;100148.63;254657;1105;116383;-64
2021/03/11 01:12:30;;;;;;;58.90;30.97;;;;;;;-3.03;62.49;100149.97;254888;1105;114933;-63
2021/03/11 01:17:36;;;;;;;47.85;23.75;;;;;;;-3.04;62.83;100136.11;254750;1104;114995;-64
2021/03/11 01:22:40;;;;;;;51.02;28.80;;;;;;;-3.09;62.03;100130.52;253312;1105;116196;-65
2021/03/11 01:27:44;;;;;;;51.85;29.48;;;;;;;-3.11;62.62;100116.78;253298;1105;115671;-63
2021/03/11 01:32:48;;;;;;;29.90;12.35;;;;;;;-3.19;65.26;100117.46;253430;1105;116286;-63
2021/03/11 01:37:51;;;;;;;59.70;29.07;;;;;;;-3.21;64.04;100095.09;252229;1105;117596;-63
2021/03/11 01:42:54;;;;;;;57.62;29.07;;;;;;;-3.24;62.55;100084.94;252812;1104;115825;-63
2021/03/11 01:47:59;;;;;;;51.13;29.98;;;;;;;-3.28;62.15;100073.95;252226;1104;116524;-64
2021/03/11 01:53:03;;;;;;;66.70;30.75;;;;;;;-3.25;63.39;100054.61;252440;1105;116369;-64
2021/03/11 01:58:08;;;;;;;52.80;28.50;;;;;;;-3.25;63.94;100052.01;252525;1104;115541;-62
2021/03/11 02:03:12;;;;;;;56.40;31.50;;;;;;;-3.27;63.23;100028.68;252157;1105;116033;-61
2021/03/11 02:08:16;;;;;;;37.67;23.98;;;;;;;-3.30;62.67;100018.53;253005;1105;116380;-62
2021/03/11 02:13:38;;;;;;;63.55;31.20;;;;;;;-3.25;62.58;100021.55;251542;1105;116691;-63
2021/03/11 02:18:56;;;;;;;58.50;28.75;;;;;;;-3.23;62.19;100024.02;253143;1105;115935;-63
2021/03/11 02:24:25;;;;;;;60.20;28.77;;;;;;;-3.18;61.43;100014.82;251719;1105;115775;-63
2021/03/11 02:29:35;;;;;;;53.38;26.27;;;;;;;-3.17;61.21;100011.25;252889;1105;139339;-63
2021/03/11 02:34:47;;;;;;;61.08;29.07;;;;;;;-3.12;60.63;100016.05;252250;1105;116537;-63
2021/03/11 02:39:56;;;;;;;46.40;25.20;;;;;;;-3.10;61.75;100009.73;252306;1105;116981;-63
2021/03/11 02:45:03;;;;;;;54.40;28.75;;;;;;;-3.12;62.45;100011.66;253928;1103;115208;-64
2021/03/11 02:50:07;;;;;;;55.73;28.98;;;;;;;-3.18;60.31;100017.42;253551;1105;115286;-63
2021/03/11 02:55:12;;;;;;;58.25;28.02;;;;;;;-3.19;61.52;100010.56;252378;1104;116747;-63
2021/03/11 03:00:16;;;;;;;48.98;25.95;;;;;;;-3.20;61.22;100010.70;255208;1104;118055;-63
2021/03/11 03:05:21;;;;;;;68.45;31.07;;;;;;;-3.20;62.16;100001.09;253414;1105;116047;-63
2021/03/11 03:10:29;;;;;;;44.65;24.67;;;;;;;-3.23;62.04;99996.16;254654;1105;115131;-63
2021/03/11 03:15:33;;;;;;;53.38;26.20;;;;;;;-3.20;62.36;99992.45;254410;1104;115066;-63
2021/03/11 03:20:37;;;;;;;48.28;24.12;;;;;;;-3.17;63.11;99985.17;253300;1104;115176;-63
2021/03/11 03:25:40;;;;;;;38.93;20.00;;;;;;;-3.19;62.07;99975.85;254835;1105;115876;-64
2021/03/11 03:30:45;;;;;;;57.05;29.77;;;;;;;-3.25;61.03;99972.02;253192;1104;116855;-63
2021/03/11 03:35:49;;;;;;;49.67;25.57;;;;;;;-3.29;61.34;99967.22;253920;1105;115147;-64
2021/03/11 03:40:53;;;;;;;39.58;22.67;;;;;;;-3.27;59.86;99960.91;252976;1105;115104;-63
2021/03/11 03:46:06;;;;;;;58.33;26.62;;;;;;;-3.28;62.00;99961.86;252436;1104;115293;-63
2021/03/11 03:51:10;;;;;;;39.73;20.43;;;;;;;-3.31;60.99;99951.72;252354;1105;115008;-63
2021/03/11 03:56:23;;;;;;;55.90;25.10;;;;;;;-3.33;62.08;99945.81;252098;1104;115382;-62
2021/03/11 04:01:31;;;;;;;34.40;19.30;;;;;;;-3.34;60.54;99935.53;252550;1105;114810;-64
2021/03/11 04:06:37;;;;;;;32.58;20.10;;;;;;;-3.28;60.05;99935.80;252352;1105;115678;-64
2021/03/11 04:11:45;;;;;;;45.47;19.57;;;;;;;-3.23;59.41;99928.38;251979;1105;115465;-63
2021/03/11 04:16:49;;;;;;;47.17;22.35;;;;;;;-3.22;60.80;99924.80;252465;1104;115899;-63
2021/03/11 04:21:53;;;;;;;37.40;18.75;;;;;;;-3.22;59.38;99916.98;252238;1105;116825;-63
2021/03/11 04:27:00;;;;;;;33.45;18.27;;;;;;;-3.29;60.39;99905.48;252646;1105;115597;-63
2021/03/11 04:32:04;;;;;;;48.42;19.20;;;;;;;-3.23;61.53;99906.70;251950;1104;119295;-63
2021/03/11 04:37:08;;;;;;;37.60;20.20;;;;;;;-3.16;59.55;99899.95;252369;1105;115988;-62
2021/03/11 04:42:13;;;;;;;34.53;16.57;;;;;;;-3.08;58.63;99895.68;252670;1105;115092;-62
2021/03/11 04:47:16;;;;;;;39.23;19.05;;;;;;;-3.11;59.97;99888.14;252212;1104;116643;-63
2021/03/11 04:52:21;;;;;;;33.60;16.37;;;;;;;-3.11;59.83;99876.89;252381;1105;118846;-63
2021/03/11 04:57:26;;;;;;;29.48;16.35;;;;;;;-3.11;56.73;99880.32;253373;1105;116375;-63
2021/03/11 05:02:34;;;;;;;30.80;16.82;;;;;;;-3.08;58.17;99866.99;253411;1104;116613;-63
2021/03/11 05:07:37;;;;;;;31.70;16.50;;;;;;;-3.06;58.10;99864.25;253492;1105;117628;-63
2021/03/11 05:12:41;;;;;;;24.12;14.53;;;;;;;-3.07;57.97;99842.56;254510;1105;116509;-65
2021/03/11 05:17:45;;;;;;;29.30;14.65;;;;;;;-2.95;57.87;99840.56;254874;1105;116355;-67
2021/03/11 05:22:50;;;;;;;33.30;17.15;;;;;;;-2.90;58.91;99827.09;254601;1105;116307;-65
2021/03/11 05:27:54;;;;;;;28.57;14.58;;;;;;;-2.76;57.37;99813.55;254772;1104;115927;-63
2021/03/11 05:32:57;;;;;;;24.97;15.97;;;;;;;-2.59;55.93;99799.69;252956;1104;116709;-63
2021/03/11 05:38:02;;;;;;;27.55;14.65;;;;;;;-2.47;56.53;99782.02;253525;1105;208419;-63
2021/03/11 05:43:08;;;;;;;18.57;9.67;;;;;;;-2.33;56.57;99778.86;253110;1105;116409;-63
2021/03/11 05:48:16;;;;;;;21.17;14.85;;;;;;;-2.22;54.79;99764.77;253129;1104;116133;-63
2021/03/11 05:53:21;;;;;;;30.73;15.43;;;;;;;-2.09;54.39;99758.15;252613;1105;115400;-63
2021/03/11 05:58:26;;;;;;;33.88;17.42;;;;;;;-1.89;55.31;99756.17;252729;1105;116314;-61
2021/03/11 06:03:33;;;;;;;34.55;19.90;;;;;;;-1.66;54.79;99759.06;252404;1104;116079;-62
2021/03/11 06:08:37;;;;;;;49.65;19.60;;;;;;;-1.52;53.94;99755.03;251978;1105;115236;-62
2021/03/11 06:13:43;;;;;;;40.98;19.10;;;;;;;-1.34;54.39;99744.50;253398;1105;116071;-64
2021/03/11 06:18:49;;;;;;;27.10;15.63;;;;;;;-1.21;53.15;99742.23;251730;1105;116081;-64
2021/03/11 06:23:53;;;;;;;16.23;10.57;;;;;;;-1.10;53.48;99734.10;251579;1105;116444;-65
2021/03/11 06:28:57;;;;;;;19.50;11.60;;;;;;;-1.04;53.50;99715.16;252098;1105;117500;-63
2021/03/11 06:34:02;;;;;;;14.93;9.73;;;;;;;-1.00;51.87;99705.19;251419;1105;118735;-64
2021/03/11 06:39:25;;;;;;;30.70;15.35;;;;;;;-0.89;51.07;99697.83;251898;1105;115830;-63
2021/03/11 06:44:47;;;;;;;27.47;15.10;;;;;;;-0.71;52.27;99693.28;251862;1105;116217;-63
2021/03/11 06:50:03;;;;;;;27.40;15.05;;;;;;;-0.47;50.10;99694.25;253754;1104;116186;-64
2021/03/11 06:55:09;;;;;;;24.25;12.78;;;;;;;-0.28;48.07;99679.97;253367;1104;116344;-64
2021/03/11 07:00:17;;;;;;;17.13;10.47;;;;;;;-0.14;48.32;99690.61;253223;1104;115893;-64
2021/03/11 07:05:25;;;;;;;24.90;14.90;;;;;;;0.02;47.28;99681.87;252899;1105;115577;-63
2021/03/11 07:10:31;;;;;;;12.18;7.17;;;;;;;0.13;47.37;99678.91;253473;1105;115089;-63
2021/03/11 07:15:37;;;;;;;14.05;9.75;;;;;;;0.31;45.98;99671.61;254222;1104;114940;-66
2021/03/11 07:20:41;;;;;;;24.02;12.70;;;;;;;0.54;47.85;99657.77;253493;1104;115828;-64
2021/03/11 07:25:49;;;;;;;29.82;14.60;;;;;;;0.77;45.58;99653.36;254376;1104;115403;-63
2021/03/11 07:30:56;;;;;;;21.02;10.88;;;;;;;0.89;45.50;99644.11;254302;1104;116519;-66
2021/03/11 07:36:05;;;;;;;19.35;11.48;;;;;;;1.15;45.24;99630.62;252867;1105;116511;-64
2021/03/11 07:41:11;;;;;;;19.73;12.88;;;;;;;1.35;43.20;99618.61;253807;1105;115908;-62
2021/03/11 07:46:14;;;;;;;20.17;11.65;;;;;;;1.45;44.58;99597.36;253805;1105;116886;-63
2021/03/11 07:51:18;;;;;;;27.45;14.53;;;;;;;1.62;43.93;99590.92;252645;1105;116173;-64
2021/03/11 07:56:21;;;;;;;13.15;9.90;;;;;;;1.61;43.35;99576.16;251982;1105;116271;-67
2021/03/11 08:01:52;;;;;;;10.55;6.80;;;;;;;1.74;44.41;99554.52;252245;1104;115824;-69
2021/03/11 08:07:26;;;;;;;16.17;10.85;;;;;;;1.72;43.01;99548.63;253099;1104;115721;-68
2021/03/11 08:12:33;;;;;;;19.48;12.40;;;;;;;1.85;41.75;99537.45;252339;1105;115735;-68
2021/03/11 08:17:42;;;;;;;18.52;14.05;;;;;;;2.01;42.25;99527.56;251825;1104;115576;-66
2021/03/11 08:27:56;;;;;;;17.15;13.13;;;;;;;2.24;43.39;99511.63;251892;1105;115644;-65
2021/03/11 08:33:00;;;;;;;15.32;6.90;;;;;;;2.21;41.11;99490.14;252092;1105;116935;-64
2021/03/11 08:38:19;;;;;;;23.55;14.47;;;;;;;2.33;40.58;99478.95;252847;1105;116795;-67
2021/03/11 08:43:37;;;;;;;16.12;11.08;;;;;;;2.25;41.11;99481.69;251352;1105;116279;-66
2021/03/11 08:48:49;;;;;;;15.00;5.70;;;;;;;2.30;42.27;99453.02;253004;1105;116376;-67
2021/03/11 08:53:53;;;;;;;22.17;14.05;;;;;;;2.43;41.93;99452.34;252408;1104;115776;-70
2021/03/11 08:59:08;;;;;;;18.27;10.13;;;;;;;2.35;43.13;99436.67;252882;1105;116491;-65
2021/03/11 09:04:21;;;;;;;16.95;10.20;;;;;;;2.36;42.40;99412.81;252986;1105;116347;-68
2021/03/11 09:09:32;;;;;;;19.30;12.90;;;;;;;2.38;43.47;99411.81;253407;1104;114970;-67
2021/03/11 09:14:37;;;;;;;25.55;15.60;;;;;;;2.23;41.12;99394.28;252594;1105;115871;-64
2021/03/11 09:19:52;;;;;;;7.15;5.67;;;;;;;2.17;42.86;99376.62;252833;1104;115293;-66
2021/03/11 09:24:59;;;;;;;10.58;6.20;;;;;;;2.08;42.36;99351.48;253503;1105;115766;-66
2021/03/11 09:30:08;;;;;;;11.83;7.40;;;;;;;2.03;42.63;99352.05;253902;1105;116013;-69
2021/03/11 09:35:14;;;;;;;28.00;17.35;;;;;;;2.25;44.38;99336.23;254149;1104;115504;-65
2021/03/11 09:40:22;;;;;;;19.32;12.78;;;;;;;2.32;44.19;99339.73;254473;1104;116077;-66
2021/03/11 09:45:32;;;;;;;12.33;8.15;;;;;;;2.27;45.09;99324.52;254079;1105;115988;-66
2021/03/11 09:50:38;;;;;;;21.02;14.38;;;;;;;2.27;45.43;99314.00;254336;1104;115266;-65
2021/03/11 09:55:40;;;;;;;10.32;7.45;;;;;;;2.26;44.54;99311.56;253094;1105;115404;-65
2021/03/11 10:00:45;;;;;;;14.55;9.03;;;;;;;2.16;43.94;99304.00;252604;1105;114879;-64
2021/03/11 10:06:01;;;;;;;18.62;10.05;;;;;;;2.17;45.32;99296.92;252879;1104;115881;-65
2021/03/11 10:11:10;;;;;;;30.45;20.77;;;;;;;2.33;46.59;99286.94;252895;1105;115087;-65
2021/03/11 10:16:14;;;;;;;18.02;11.55;;;;;;;2.43;45.99;99276.08;252247;1105;114971;-64
2021/03/11 10:21:17;;;;;;;30.82;16.87;;;;;;;2.55;44.87;99273.70;252189;1104;115227;-64
2021/03/11 10:26:34;;;;;;;19.62;10.93;;;;;;;2.43;46.22;99259.48;252979;1105;116271;-64
2021/03/11 10:31:37;;;;;;;31.42;18.98;;;;;;;2.51;47.45;99267.20;252343;1105;116324;-64
2021/03/11 10:36:55;;;;;;;26.77;16.25;;;;;;;2.44;46.23;99256.66;252433;1105;115123;-64
2021/03/11 10:42:02;;;;;;;29.87;16.12;;;;;;;2.53;46.79;99244.14;252721;1104;137880;-66
2021/03/11 10:47:16;;;;;;;18.48;11.75;;;;;;;2.62;45.01;99242.98;252173;1105;115530;-63
2021/03/11 10:52:19;;;;;;;24.37;15.25;;;;;;;2.68;46.35;99250.91;252369;1105;115920;-63
2021/03/11 10:57:22;;;;;;;15.18;9.90;;;;;;;2.67;47.99;99240.58;252605;1104;116309;-65
2021/03/11 11:02:29;;;;;;;22.57;16.10;;;;;;;2.69;45.01;99236.75;251758;1105;116101;-64
2021/03/11 11:07:32;;;;;;;;;;;;;;;2.73;46.50;99218.75;251984;1105;116076;-66
2021/03/11 11:12:36;;;;;;;34.50;17.82;;;;;;;2.68;47.00;99194.84;253762;1105;105001;-65
2021/03/11 11:17:39;;;;;;;28.47;13.78;;;;;;;2.62;46.46;99170.12;252032;1104;116463;-66
2021/03/11 11:22:42;;;;;;;28.23;17.00;;;;;;;2.54;48.63;99164.20;251578;1105;116157;-65
2021/03/11 11:27:45;;;;;;;29.35;18.02;;;;;;;2.28;57.06;99155.20;253194;1105;116343;-66
2021/03/11 11:32:48;;;;;;;21.93;14.70;;;;;;;2.01;62.20;99158.70;254485;1104;115692;-65
2021/03/11 11:37:52;;;;;;;22.20;14.38;;;;;;;1.89;65.44;99141.84;254434;1105;115249;-65
2021/03/11 11:43:00;;;;;;;26.77;15.90;;;;;;;1.69;68.69;99131.22;254570;1104;116440;-64
2021/03/11 11:48:06;;;;;;;26.02;14.60;;;;;;;1.58;71.67;99114.16;253986;1105;133229;-68
2021/03/11 11:53:23;;;;;;;26.60;14.00;;;;;;;1.45;74.32;99108.83;254119;1105;115784;-66
2021/03/11 11:58:29;;;;;;;24.43;16.10;;;;;;;1.45;75.09;99108.83;252468;1105;115629;-65
2021/03/11 12:03:33;;;;;;;19.12;12.55;;;;;;;1.43;75.39;99087.20;254070;1105;116270;-69
2021/03/11 12:08:37;;;;;;;31.33;16.67;;;;;;;1.42;77.14;99088.20;251522;1105;115340;-67
2021/03/11 12:13:45;;;;;;;20.30;10.05;;;;;;;1.32;77.68;99069.34;253343;1105;116277;-67
2021/03/11 12:18:49;;;;;;;37.90;21.50;;;;;;;1.31;77.85;99047.52;253787;1105;115208;-66
2021/03/11 12:23:53;;;;;;;37.90;21.00;;;;;;;1.31;78.25;99012.58;253073;1105;114999;-65
2021/03/11 12:29:00;;;;;;;38.17;23.70;;;;;;;1.29;78.00;98998.83;252091;1105;116486;-67
2021/03/11 12:34:04;;;;;;;38.50;24.72;;;;;;;1.39;77.20;98983.55;252872;1105;116329;-62
2021/03/11 12:39:10;;;;;;;37.13;20.93;;;;;;;1.35;78.24;98966.55;251829;1105;115900;-64
2021/03/11 12:44:14;;;;;;;37.10;23.25;;;;;;;1.28;77.39;98958.63;252774;1104;115230;-63
2021/03/11 12:49:19;;;;;;;32.15;21.97;;;;;;;1.20;78.99;98947.50;252094;1105;115990;-67
2021/03/11 12:54:24;;;;;;;25.20;14.93;;;;;;;1.03;79.53;98933.05;251689;1105;114811;-68
2021/03/11 12:59:27;;;;;;;26.13;16.83;;;;;;;0.99;80.34;98932.63;252178;1105;116098;-64
2021/03/11 13:04:30;;;;;;;35.20;20.90;;;;;;;0.94;80.88;98922.70;252186;1105;115782;-65
2021/03/11 13:09:36;;;;;;;32.73;19.85;;;;;;;0.94;80.84;98916.64;252062;1105;115650;-65
2021/03/11 13:14:41;;;;;;;13.03;8.68;;;;;;;0.77;82.28;98891.72;251739;1105;116793;-65
2021/03/11 13:19:45;;;;;;;34.18;19.12;;;;;;;0.84;81.58;98895.20;252612;1105;116942;-65
2021/03/11 13:24:49;;;;;;;22.93;12.50;;;;;;;0.85;81.48;98868.78;252935;1105;118282;-66
2021/03/11 13:29:53;;;;;;;32.48;20.08;;;;;;;0.88;81.82;98860.52;253760;1105;117377;-66
2021/03/11 13:34:58;;;;;;;20.82;11.30;;;;;;;0.76;80.98;98848.94;251729;1105;115053;-65
2021/03/11 13:40:07;;;;;;;24.63;16.82;;;;;;;0.77;81.31;98855.81;252571;1105;115159;-66
2021/03/11 13:45:17;;;;;;;31.90;18.32;;;;;;;0.75;81.45;98828.14;254367;1105;119338;-66
2021/03/11 13:50:23;;;;;;;42.70;23.40;;;;;;;0.82;80.47;98818.50;254769;1105;115487;-65
2021/03/11 13:55:27;;;;;;;44.90;25.77;;;;;;;0.86;81.08;98810.05;254097;1105;115017;-64
2021/03/11 14:00:31;;;;;;;21.85;13.15;;;;;;;0.86;80.37;98794.31;253820;1105;115094;-64
2021/03/11 14:05:36;;;;;;;34.95;21.55;;;;;;;0.91;81.42;98772.73;254024;1105;115079;-63
2021/03/11 14:10:39;;;;;;;19.10;11.08;;;;;;;0.99;80.73;98762.05;254832;1104;115439;-62
2021/03/11 14:15:45;;;;;;;35.20;19.57;;;;;;;1.07;79.77;98759.26;253272;1105;116164;-64
2021/03/11 14:20:48;;;;;;;27.23;16.30;;;;;;;1.17;80.67;98759.70;253180;1104;115645;-63
2021/03/11 14:25:51;;;;;;;31.10;18.90;;;;;;;1.17;79.75;98758.89;253357;1105;114850;-64
2021/03/11 14:30:55;;;;;;;32.28;21.93;;;;;;;1.17;81.17;98751.02;252652;1105;115864;-67
2021/03/11 14:35:59;;;;;;;41.67;26.00;;;;;;;1.08;81.24;98760.07;252680;1105;116367;-66
2021/03/11 14:41:05;;;;;;;36.97;21.47;;;;;;;1.07;81.03;98763.70;251776;1105;115107;-66
2021/03/11 14:46:10;;;;;;;32.13;19.98;;;;;;;0.97;82.71;98738.63;251930;1105;116232;-64
2021/03/11 14:51:16;;;;;;;40.13;23.43;;;;;;;0.98;82.64;98740.25;251605;1105;115383;-65
2021/03/11 14:56:19;;;;;;;33.60;21.75;;;;;;;0.99;82.32;98720.87;251850;1105;114942;-65
2021/03/11 15:01:23;;;;;;;34.70;19.67;;;;;;;0.86;83.21;98702.48;251734;1105;115600;-64
2021/03/11 15:06:26;;;;;;;21.17;11.73;;;;;;;0.81;83.49;98691.77;251962;1105;115315;-63
2021/03/11 15:11:30;;;;;;;32.28;18.73;;;;;;;0.77;83.67;98690.55;252185;1105;115982;-66
2021/03/11 15:16:33;;;;;;;50.45;25.12;;;;;;;0.75;83.88;98678.62;252965;1104;116185;-62
2021/03/11 15:21:38;;;;;;;37.15;23.42;;;;;;;0.68;84.85;98668.11;252545;1105;115166;-65
2021/03/11 15:26:42;;;;;;;38.05;19.05;;;;;;;0.71;85.04;98646.73;252953;1105;116012;-63
2021/03/11 15:31:48;;;;;;;41.50;23.87;;;;;;;0.67;85.64;98635.83;251795;1105;115322;-63
2021/03/11 15:36:52;;;;;;;36.03;25.12;;;;;;;0.67;84.59;98627.16;253367;1105;117169;-64
2021/03/11 15:41:55;;;;;;;15.48;9.43;;;;;;;0.61;85.81;98618.26;253875;1105;116054;-63
2021/03/11 15:47:02;;;;;;;44.42;24.35;;;;;;;0.61;85.93;98609.61;253299;1104;115810;-64
2021/03/11 15:52:06;;;;;;;43.63;23.40;;;;;;;0.64;85.30;98591.64;254252;1104;115406;-64
2021/03/11 15:57:10;;;;;;;45.03;24.27;;;;;;;0.67;85.94;98586.00;254820;1105;114749;-63
2021/03/11 16:02:15;;;;;;;34.20;17.75;;;;;;;0.61;86.43;98565.81;254918;1105;115441;-63
2021/03/11 16:07:20;;;;;;;36.05;20.00;;;;;;;0.65;86.68;98559.16;254585;1104;115621;-64
2021/03/11 16:12:23;;;;;;;43.58;23.65;;;;;;;0.71;86.51;98551.51;253954;1104;116117;-63
2021/03/11 16:17:27;;;;;;;37.93;23.92;;;;;;;0.73;86.50;98550.30;252161;1104;115663;-65
2021/03/11 16:22:33;;;;;;;33.80;20.00;;;;;;;0.74;86.59;98549.30;252259;1105;117506;-65
2021/03/11 16:27:38;;;;;;;37.80;22.10;;;;;;;0.74;86.64;98530.94;253254;1103;117728;-64
2021/03/11 16:32:43;;;;;;;34.60;22.33;;;;;;;0.75;86.76;98523.88;251791;1104;117358;-63
2021/03/11 16:37:49;;;;;;;48.33;28.47;;;;;;;0.71;87.05;98510.35;251608;1105;118542;-64
2021/03/11 16:42:53;;;;;;;48.25;28.30;;;;;;;0.77;86.80;98514.80;252711;1105;116103;-64
2021/03/11 16:47:58;;;;;;;39.75;24.95;;;;;;;0.76;87.23;98499.27;252494;1105;117669;-63
2021/03/11 16:53:02;;;;;;;33.45;19.67;;;;;;;0.69;87.75;98494.01;252106;1104;116211;-66
2021/03/11 16:58:06;;;;;;;53.65;31.42;;;;;;;0.70;88.61;98473.83;252053;1105;116526;-63
2021/03/11 17:03:10;;;;;;;31.02;18.52;;;;;;;0.70;88.37;98479.08;251551;1105;116798;-65
2021/03/11 17:08:14;;;;;;;29.13;19.63;;;;;;;0.68;89.05;98472.22;251741;1105;116646;-65
2021/03/11 17:13:18;;;;;;;39.20;25.85;;;;;;;0.66;89.41;98455.07;252117;1105;115753;-62
2021/03/11 17:18:23;;;;;;;46.35;27.45;;;;;;;0.71;89.84;98452.66;253142;1104;116569;-65
2021/03/11 17:23:28;;;;;;;32.17;20.72;;;;;;;0.77;89.92;98464.16;252424;1105;115812;-65
2021/03/11 17:28:32;;;;;;;40.97;23.83;;;;;;;0.79;90.09;98446.40;252683;1105;115219;-65
2021/03/11 17:33:36;;;;;;;35.68;23.85;;;;;;;0.86;89.31;98427.03;253409;1105;115442;-65
2021/03/11 17:38:39;;;;;;;46.23;28.67;;;;;;;0.93;88.34;98421.74;253342;1105;115751;-64
2021/03/11 17:43:42;;;;;;;35.73;21.95;;;;;;;0.96;88.87;98416.89;252526;1105;115464;-65
2021/03/11 17:48:46;;;;;;;45.17;26.57;;;;;;;1.01;88.83;98401.34;253852;1105;114976;-68
2021/03/11 17:53:52;;;;;;;40.80;25.65;;;;;;;1.11;88.42;98407.99;254666;1105;115531;-63
2021/03/11 17:58:55;;;;;;;28.17;14.63;;;;;;;1.12;87.78;98376.30;254709;1105;114964;-63
2021/03/11 18:04:00;;;;;;;20.15;13.08;;;;;;;1.16;88.81;98376.69;254821;1105;114970;-65
2021/03/11 18:09:10;;;;;;;30.68;19.73;;;;;;;1.22;87.90;98367.99;254412;1104;114781;-65
2021/03/11 18:14:14;;;;;;;28.12;16.70;;;;;;;1.25;88.01;98376.23;254479;1104;114849;-65
2021/03/11 18:19:17;;;;;;;38.33;21.45;;;;;;;1.33;88.43;98348.94;254897;1105;116090;-66
2021/03/11 18:24:21;;;;;;;16.48;11.30;;;;;;;1.37;88.28;98329.14;254776;1105;114795;-64
2021/03/11 18:29:24;;;;;;;40.70;20.50;;;;;;;1.37;89.47;98329.14;252301;1105;115557;-64
2021/03/11 18:34:28;;;;;;;47.83;26.85;;;;;;;1.43;88.00;98317.80;253801;1104;115597;-65
2021/03/11 18:39:31;;;;;;;37.93;21.17;;;;;;;1.50;89.43;98302.02;253225;1105;115064;-63
2021/03/11 18:44:35;;;;;;;34.67;21.10;;;;;;;1.51;88.31;98322.81;252392;1105;116213;-67
2021/03/11 18:49:39;;;;;;;11.00;6.00;;;;;;;1.48;89.18;98307.47;252477;1105;115827;-65
2021/03/11 18:54:44;;;;;;;40.38;22.87;;;;;;;1.58;89.35;98368.20;253134;1105;115322;-63
2021/03/11 18:59:47;;;;;;;32.58;19.92;;;;;;;1.64;90.32;98391.00;251914;1105;116060;-64
2021/03/11 19:04:50;;;;;;;14.05;9.20;;;;;;;1.64;89.69;98395.45;252765;1105;115826;-64
2021/03/11 19:09:54;;;;;;;36.42;19.62;;;;;;;1.62;89.62;98384.34;251384;1105;115401;-63
2021/03/11 19:14:59;;;;;;;37.88;21.57;;;;;;;1.66;89.46;98375.84;252189;1105;115046;-63
2021/03/11 19:20:07;;;;;;;35.73;20.68;;;;;;;1.71;89.47;98361.27;252198;1105;116630;-63
2021/03/11 19:25:12;;;;;;;16.07;9.25;;;;;;;1.73;90.22;98344.29;252721;1104;116173;-66
2021/03/11 19:30:18;;;;;;;36.87;21.47;;;;;;;1.74;89.61;98345.09;252687;1105;116095;-63
2021/03/11 19:35:23;;;;;;;42.30;26.02;;;;;;;1.85;89.10;98321.55;252082;1105;116652;-62
2021/03/11 19:40:46;;;;;;;39.33;24.87;;;;;;;1.87;89.17;98301.13;251660;1105;116809;-65
2021/03/11 19:45:53;;;;;;;45.57;24.60;;;;;;;1.84;89.15;98292.86;251220;1105;116814;-68
2021/03/11 19:50:57;;;;;;;36.55;21.73;;;;;;;1.77;88.02;98302.64;251992;1104;138019;-63
2021/03/11 19:56:00;;;;;;;53.23;28.10;;;;;;;1.78;88.55;98285.86;252288;1105;115686;-62
2021/03/11 20:01:03;;;;;;;41.70;26.85;;;;;;;1.74;88.92;98277.59;253339;1105;115516;-64
2021/03/11 20:06:07;;;;;;;44.70;24.87;;;;;;;1.67;88.38;98268.95;253456;1104;116299;-67
2021/03/11 20:11:12;;;;;;;38.90;20.80;;;;;;;1.59;88.50;98261.33;254521;1105;114791;-67
2021/03/11 20:16:14;;;;;;;49.95;26.65;;;;;;;1.57;88.33;98256.28;252305;1105;116377;-67
2021/03/11 20:21:17;;;;;;;39.90;25.35;;;;;;;1.57;88.03;98251.03;253976;1105;115064;-66
2021/03/11 20:26:20;;;;;;;33.75;21.48;;;;;;;1.56;89.42;98254.67;251462;1105;117026;-67
2021/03/11 20:31:23;;;;;;;39.90;22.85;;;;;;;1.52;88.04;98248.27;254237;1105;117436;-64
2021/03/11 20:36:27;;;;;;;41.20;26.57;;;;;;;1.50;88.70;98246.87;253193;1105;115936;-65
2021/03/11 20:41:39;;;;;;;46.65;27.45;;;;;;;1.54;88.11;98240.95;253364;1104;116204;-64
2021/03/11 20:46:45;;;;;;;39.65;22.20;;;;;;;1.61;88.44;98246.97;252916;1104;116831;-66
2021/03/11 20:51:49;;;;;;;38.43;23.37;;;;;;;1.62;88.33;98234.64;252445;1105;114902;-66
2021/03/11 20:56:56;;;;;;;31.77;16.48;;;;;;;1.62;89.61;98227.56;253495;1104;114970;-66
2021/03/11 21:02:04;;;;;;;43.00;26.23;;;;;;;1.68;89.45;98226.72;253295;1105;115581;-66
2021/03/11 21:07:08;;;;;;;31.27;20.48;;;;;;;1.78;90.37;98220.18;253090;1105;115567;-63
2021/03/11 21:12:16;;;;;;;34.63;22.48;;;;;;;1.83;90.29;98205.39;252833;1105;115423;-66
2021/03/11 21:17:20;;;;;;;41.00;26.12;;;;;;;1.91;89.75;98193.77;252295;1105;116072;-64
2021/03/11 21:22:24;;;;;;;36.25;24.10;;;;;;;2.01;90.65;98201.97;252420;1105;117139;-64
2021/03/11 21:27:27;;;;;;;31.23;19.90;;;;;;;2.11;91.30;98196.23;251841;1105;116546;-65
2021/03/11 21:32:31;;;;;;;25.00;16.20;;;;;;;2.10;90.32;98208.56;252490;1105;115870;-66
2021/03/11 21:37:35;;;;;;;33.02;19.92;;;;;;;2.10;89.22;98203.31;252601;1104;115754;-65
2021/03/11 21:42:41;;;;;;;41.15;24.27;;;;;;;2.07;89.31;98195.86;251721;1105;116083;-66
2021/03/11 21:47:48;;;;;;;41.53;24.32;;;;;;;2.13;90.74;98189.73;252872;1105;115704;-65
2021/03/11 21:52:53;;;;;;;37.60;22.22;;;;;;;2.22;89.21;98191.03;252695;1104;115730;-64
2021/03/11 21:57:59;;;;;;;34.27;22.73;;;;;;;2.25;89.77;98174.82;253406;1104;115284;-67
2021/03/11 22:03:05;;;;;;;35.28;19.90;;;;;;;2.27;90.39;98191.18;253267;1105;115108;-63
2021/03/11 22:08:10;;;;;;;37.97;22.43;;;;;;;2.41;89.36;98188.42;254477;1105;116228;-66
2021/03/11 22:13:14;;;;;;;29.55;17.45;;;;;;;2.52;89.34;98185.03;255002;1105;115446;-65
2021/03/11 22:18:18;;;;;;;27.87;17.40;;;;;;;2.57;89.80;98191.24;254934;1105;115726;-64
2021/03/11 22:23:21;;;;;;;40.15;22.30;;;;;;;2.66;88.42;98183.86;254588;1104;116053;-66
2021/03/11 22:28:24;;;;;;;35.03;19.50;;;;;;;2.81;88.60;98183.45;255017;1105;116165;-62
2021/03/11 22:33:27;;;;;;;32.58;18.25;;;;;;;2.91;87.19;98162.68;254503;1105;117617;-64
2021/03/11 22:38:31;;;;;;;35.68;25.05;;;;;;;2.95;89.07;98167.27;253188;1104;116401;-65
2021/03/11 22:43:35;;;;;;;31.55;21.25;;;;;;;3.03;87.30;98166.97;252664;1105;116170;-66
2021/03/11 22:48:39;;;;;;;27.10;19.35;;;;;;;3.03;86.42;98172.23;251726;1105;116624;-66
2021/03/11 22:53:43;;;;;;;28.27;17.87;;;;;;;3.06;86.32;98199.91;251529;1105;117572;-68
2021/03/11 22:58:46;;;;;;;31.12;17.82;;;;;;;3.03;88.10;98200.38;251597;1105;116946;-62
2021/03/11 23:03:50;;;;;;;41.13;23.30;;;;;;;3.09;87.63;98209.19;252411;1105;117264;-65
2021/03/11 23:08:54;;;;;;;31.12;19.77;;;;;;;3.16;88.61;98213.34;252254;1105;116445;-64